createdAt,value
2016-10-11T00:01:02.406Z,16.01
2016-10-11T00:02:13.571Z,15.93
2016-10-11T00:03:24.741Z,15.93
2016-10-11T00:04:36.163Z,15.84
2016-10-11T00:05:47.325Z,15.96
2016-10-11T00:06:58.504Z,15.89
2016-10-11T00:08:10.028Z,15.78
2016-10-11T00:09:22.574Z,15.71
2016-10-11T00:10:33.740Z,15.69
2016-10-11T00:11:44.921Z,15.68
2016-10-11T00:12:56.094Z,15.51
2016-10-11T00:14:07.256Z,15.49
2016-10-11T00:15:18.419Z,15.49
2016-10-11T00:16:29.606Z,15.59
2016-10-11T00:17:40.760Z,15.67
2016-10-11T00:18:51.993Z,15.64
2016-10-11T00:20:03.705Z,15.56
2016-10-11T00:21:14.839Z,15.49
2016-10-11T00:22:26.006Z,15.51
2016-10-11T00:23:37.733Z,15.46
2016-10-11T00:24:48.919Z,15.41
2016-10-11T00:26:00.099Z,15.41
2016-10-11T00:27:11.264Z,15.39
2016-10-11T00:28:22.420Z,15.35
2016-10-11T00:29:33.583Z,15.36
2016-10-11T00:30:44.793Z,15.32
2016-10-11T00:31:55.964Z,15.29
2016-10-11T00:33:07.136Z,15.23
2016-10-11T00:34:18.321Z,15.25
2016-10-11T00:35:29.520Z,15.2
2016-10-11T00:36:41.263Z,15.27
2016-10-11T00:37:52.452Z,15.29
2016-10-11T00:39:03.660Z,15.2
2016-10-11T00:40:14.805Z,15.19
2016-10-11T00:41:26.138Z,15.1
2016-10-11T00:42:37.304Z,15.2
2016-10-11T00:43:48.479Z,15.09
2016-10-11T00:44:59.644Z,15.06
2016-10-11T00:46:10.823Z,15.11
2016-10-11T00:47:21.996Z,15.13
2016-10-11T00:48:33.173Z,15.13
2016-10-11T00:49:44.344Z,15.16
2016-10-11T00:50:55.506Z,15.02
2016-10-11T00:52:06.678Z,15.13
2016-10-11T00:53:17.878Z,14.99
2016-10-11T00:54:29.104Z,15.02
2016-10-11T00:55:40.272Z,15.06
2016-10-11T00:56:52.140Z,15.06
2016-10-11T00:58:04.112Z,15.03
2016-10-11T00:59:15.268Z,15.06
2016-10-11T01:00:26.427Z,15.01
2016-10-11T01:01:37.634Z,15.01
2016-10-11T01:02:48.787Z,15.01
2016-10-11T01:04:00.938Z,15.02
2016-10-11T01:05:12.245Z,14.99
2016-10-11T01:06:23.421Z,14.91
2016-10-11T01:07:34.606Z,15.03
2016-10-11T01:08:45.795Z,14.98
2016-10-11T01:09:56.967Z,14.95
2016-10-11T01:11:08.115Z,14.95
2016-10-11T01:12:19.264Z,14.88
2016-10-11T01:13:30.443Z,14.94
2016-10-11T01:14:41.621Z,14.91
2016-10-11T01:15:52.814Z,14.94
2016-10-11T01:17:03.963Z,14.88
2016-10-11T01:18:15.130Z,14.86
2016-10-11T01:19:26.272Z,14.84
2016-10-11T01:20:37.447Z,14.88
2016-10-11T01:21:48.759Z,14.96
2016-10-11T01:22:59.944Z,14.95
2016-10-11T01:24:11.123Z,14.91
2016-10-11T01:25:22.288Z,14.94
2016-10-11T01:26:33.462Z,14.81
2016-10-11T01:27:44.625Z,14.86
2016-10-11T01:28:55.775Z,14.86
2016-10-11T01:30:06.948Z,14.94
2016-10-11T01:31:18.115Z,14.96
2016-10-11T01:32:29.285Z,14.78
2016-10-11T01:33:40.473Z,14.96
2016-10-11T01:34:51.632Z,14.95
2016-10-11T01:36:02.816Z,14.96
2016-10-11T01:37:14.000Z,14.83
2016-10-11T01:38:25.192Z,14.98
2016-10-11T01:39:36.359Z,14.99
2016-10-11T01:40:47.497Z,14.94
2016-10-11T01:41:58.676Z,14.95
2016-10-11T01:43:09.881Z,14.91
2016-10-11T01:44:21.027Z,14.94
2016-10-11T01:45:32.198Z,14.91
2016-10-11T01:46:43.375Z,14.98
2016-10-11T01:47:54.547Z,14.92
2016-10-11T01:49:06.260Z,14.91
2016-10-11T01:50:17.440Z,14.95
2016-10-11T01:51:28.611Z,14.95
2016-10-11T01:52:39.770Z,14.91
2016-10-11T01:53:50.958Z,14.91
2016-10-11T01:55:02.121Z,14.94
2016-10-11T01:56:13.304Z,14.91
2016-10-11T01:57:24.489Z,14.91
2016-10-11T01:58:35.678Z,14.84
2016-10-11T01:59:46.860Z,14.91
2016-10-11T02:00:58.022Z,14.92
2016-10-11T02:02:09.211Z,14.92
2016-10-11T02:03:20.361Z,14.98
2016-10-11T02:04:31.535Z,15.01
2016-10-11T02:05:42.716Z,15.06
2016-10-11T02:06:53.914Z,15.01
2016-10-11T02:08:05.067Z,15.06
2016-10-11T02:09:16.207Z,15.02
2016-10-11T02:10:27.364Z,15.02
2016-10-11T02:11:38.539Z,15.07
2016-10-11T02:12:50.261Z,15.02
2016-10-11T02:14:01.446Z,15.02
2016-10-11T02:15:13.188Z,15.11
2016-10-11T02:16:24.360Z,15.09
2016-10-11T02:17:35.548Z,15.17
2016-10-11T02:18:46.713Z,15.17
2016-10-11T02:19:57.856Z,15.2
2016-10-11T02:21:09.017Z,15.21
2016-10-11T02:22:20.174Z,15.17
2016-10-11T02:23:31.361Z,15.21
2016-10-11T02:24:42.559Z,15.17
2016-10-11T02:25:53.741Z,15.21
2016-10-11T02:27:04.910Z,15.21
2016-10-11T02:28:16.061Z,15.21
2016-10-11T02:29:27.216Z,15.25
2016-10-11T02:30:38.383Z,15.28
2016-10-11T02:31:49.556Z,15.21
2016-10-11T02:33:00.709Z,15.32
2016-10-11T02:34:11.848Z,15.29
2016-10-11T02:35:23.035Z,15.32
2016-10-11T02:36:34.208Z,15.36
2016-10-11T02:37:45.373Z,15.35
2016-10-11T02:38:56.527Z,15.39
2016-10-11T02:40:07.707Z,15.44
2016-10-11T02:41:19.431Z,15.39
2016-10-11T02:42:30.597Z,15.5
2016-10-11T02:43:41.780Z,15.49
2016-10-11T02:44:52.984Z,15.53
2016-10-11T02:46:04.170Z,15.56
2016-10-11T02:47:16.014Z,15.51
2016-10-11T02:48:27.166Z,15.59
2016-10-11T02:49:38.376Z,15.64
2016-10-11T02:50:49.541Z,15.59
2016-10-11T02:52:00.714Z,15.64
2016-10-11T02:53:12.491Z,15.68
2016-10-11T02:54:23.648Z,15.68
2016-10-11T02:55:34.827Z,15.76
2016-10-11T02:56:46.002Z,15.75
2016-10-11T02:57:57.160Z,15.72
2016-10-11T02:59:08.311Z,15.75
2016-10-11T03:00:19.471Z,15.75
2016-10-11T03:01:30.662Z,15.74
2016-10-11T03:02:41.826Z,15.74
2016-10-11T03:03:52.992Z,15.76
2016-10-11T03:05:04.151Z,15.8
2016-10-11T03:06:15.312Z,15.75
2016-10-11T03:07:26.510Z,15.84
2016-10-11T03:08:37.667Z,15.92
2016-10-11T03:09:48.826Z,15.82
2016-10-11T03:10:59.980Z,15.86
2016-10-11T03:12:11.152Z,15.97
2016-10-11T03:13:22.314Z,15.97
2016-10-11T03:14:33.462Z,16.04
2016-10-11T03:15:44.650Z,16.01
2016-10-11T03:16:55.802Z,16.09
2016-10-11T03:18:06.946Z,16.04
2016-10-11T03:19:18.125Z,16.04
2016-10-11T03:20:29.851Z,16.04
2016-10-11T03:21:41.046Z,16.01
2016-10-11T03:22:52.213Z,16.08
2016-10-11T03:24:03.994Z,16.08
2016-10-11T03:25:15.167Z,16.04
2016-10-11T03:26:26.333Z,16.07
2016-10-11T03:27:37.510Z,16.07
2016-10-11T03:28:48.670Z,16.04
2016-10-11T03:30:00.388Z,16.04
2016-10-11T03:31:11.542Z,16.02
2016-10-11T03:32:22.699Z,16.08
2016-10-11T03:33:33.871Z,16.01
2016-10-11T03:34:45.601Z,16
2016-10-11T03:35:57.356Z,16
2016-10-11T03:37:09.108Z,16.01
2016-10-11T03:38:20.259Z,16.04
2016-10-11T03:39:31.417Z,16.02
2016-10-11T03:40:42.570Z,16
2016-10-11T03:41:53.742Z,16.02
2016-10-11T03:43:05.464Z,16.02
2016-10-11T03:44:16.617Z,16
2016-10-11T03:45:27.822Z,16
2016-10-11T03:46:39.526Z,16.04
2016-10-11T03:47:50.722Z,15.92
2016-10-11T03:49:01.865Z,16.08
2016-10-11T03:50:13.069Z,16.02
2016-10-11T03:51:24.810Z,16.07
2016-10-11T03:52:37.079Z,16.04
2016-10-11T03:53:48.793Z,16.08
2016-10-11T03:54:59.986Z,16.08
2016-10-11T03:56:11.154Z,16.04
2016-10-11T03:57:22.353Z,16
2016-10-11T03:58:34.082Z,16
2016-10-11T03:59:45.248Z,16.04
2016-10-11T04:00:56.435Z,16.01
2016-10-11T04:02:07.639Z,16.08
2016-10-11T04:03:18.867Z,16.09
2016-10-11T04:04:30.044Z,16.07
2016-10-11T04:05:41.208Z,16.08
2016-10-11T04:06:52.367Z,15.97
2016-10-11T04:08:03.527Z,16.04
2016-10-11T04:09:14.688Z,16.04
2016-10-11T04:10:26.443Z,15.97
2016-10-11T04:11:37.639Z,16.05
2016-10-11T04:12:48.963Z,16.04
2016-10-11T04:14:00.695Z,16.07
2016-10-11T04:15:11.877Z,16.07
2016-10-11T04:16:23.033Z,16.07
2016-10-11T04:17:34.208Z,16
2016-10-11T04:18:45.401Z,16.05
2016-10-11T04:19:57.135Z,15.96
2016-10-11T04:21:08.299Z,16.14
2016-10-11T04:22:19.457Z,16.11
2016-10-11T04:23:30.626Z,16.04
2016-10-11T04:24:41.799Z,16.01
2016-10-11T04:25:52.976Z,16.11
2016-10-11T04:27:04.140Z,16.08
2016-10-11T04:28:15.311Z,16.07
2016-10-11T04:29:27.031Z,16.15
2016-10-11T04:30:38.253Z,16.05
2016-10-11T04:31:49.993Z,16.02
2016-10-11T04:33:01.208Z,16.14
2016-10-11T04:34:12.365Z,16.09
2016-10-11T04:35:23.556Z,16.04
2016-10-11T04:36:35.854Z,16.02
2016-10-11T04:37:47.026Z,16.12
2016-10-11T04:38:58.197Z,16.08
2016-10-11T04:40:09.421Z,16.11
2016-10-11T04:41:20.602Z,16.12
2016-10-11T04:42:31.798Z,16.15
2016-10-11T04:43:42.980Z,16.08
2016-10-11T04:44:54.125Z,16.04
2016-10-11T04:46:05.271Z,16.11
2016-10-11T04:47:17.567Z,16.12
2016-10-11T04:48:29.846Z,16.08
2016-10-11T04:49:41.018Z,16.07
2016-10-11T04:50:52.194Z,16.21
2016-10-11T04:52:03.348Z,16.12
2016-10-11T04:53:15.067Z,16.12
2016-10-11T04:54:26.813Z,16.12
2016-10-11T04:55:37.968Z,16.14
2016-10-11T04:56:49.123Z,16.17
2016-10-11T04:58:00.264Z,16.17
2016-10-11T04:59:11.425Z,16.17
2016-10-11T05:00:22.594Z,16.12
2016-10-11T05:01:33.789Z,16.14
2016-10-11T05:02:44.961Z,16.15
2016-10-11T05:03:56.145Z,16.12
2016-10-11T05:05:07.322Z,16.15
2016-10-11T05:06:18.493Z,16.08
2016-10-11T05:07:29.683Z,16.11
2016-10-11T05:08:40.842Z,16.04
2016-10-11T05:09:51.991Z,16.08
2016-10-11T05:11:03.127Z,16.07
2016-10-11T05:12:14.307Z,16.11
2016-10-11T05:13:25.473Z,16.11
2016-10-11T05:14:36.649Z,16.11
2016-10-11T05:15:47.830Z,16.09
2016-10-11T05:16:58.999Z,16.15
2016-10-11T05:18:10.135Z,16.12
2016-10-11T05:19:21.326Z,16.2
2016-10-11T05:20:32.472Z,16.15
2016-10-11T05:21:43.645Z,16.12
2016-10-11T05:22:54.780Z,16.04
2016-10-11T05:24:06.548Z,16.05
2016-10-11T05:25:17.735Z,16.08
2016-10-11T05:26:28.897Z,16.14
2016-10-11T05:27:40.050Z,16.09
2016-10-11T05:28:51.216Z,16.02
2016-10-11T05:30:02.947Z,16.07
2016-10-11T05:31:14.147Z,16.08
2016-10-11T05:32:25.358Z,16.08
2016-10-11T05:33:36.533Z,16.07
2016-10-11T05:34:47.710Z,16.11
2016-10-11T05:35:58.895Z,16.11
2016-10-11T05:37:10.095Z,16.04
2016-10-11T05:38:21.278Z,16.04
2016-10-11T05:39:32.447Z,16.08
2016-10-11T05:40:43.597Z,16.04
2016-10-11T05:41:54.754Z,16.09
2016-10-11T05:43:05.911Z,16.07
2016-10-11T05:44:17.628Z,16.21
2016-10-11T05:45:28.797Z,16.14
2016-10-11T05:46:40.518Z,16.14
2016-10-11T05:47:51.651Z,16.17
2016-10-11T05:49:02.835Z,16.11
2016-10-11T05:50:14.000Z,16.05
2016-10-11T05:51:25.167Z,16.04
2016-10-11T05:52:36.333Z,16.05
2016-10-11T05:53:47.494Z,16.12
2016-10-11T05:54:58.666Z,16.14
2016-10-11T05:56:09.834Z,16.08
2016-10-11T05:57:20.986Z,16.05
2016-10-11T05:58:32.160Z,16.08
2016-10-11T05:59:43.316Z,16.04
2016-10-11T06:00:54.493Z,16.02
2016-10-11T06:02:05.682Z,16.05
2016-10-11T06:03:16.849Z,16.01
2016-10-11T06:04:28.019Z,16.05
2016-10-11T06:05:39.193Z,16.14
2016-10-11T06:06:50.381Z,16.09
2016-10-11T06:08:01.546Z,16.08
2016-10-11T06:09:12.705Z,16.12
2016-10-11T06:10:23.886Z,16.02
2016-10-11T06:11:35.064Z,16.07
2016-10-11T06:12:46.233Z,16.09
2016-10-11T06:13:57.405Z,16.09
2016-10-11T06:15:08.578Z,16.09
2016-10-11T06:16:19.734Z,16.08
2016-10-11T06:17:30.887Z,16.08
2016-10-11T06:18:42.036Z,16.09
2016-10-11T06:19:53.215Z,16.04
2016-10-11T06:21:04.396Z,16.14
2016-10-11T06:22:15.599Z,16.05
2016-10-11T06:23:26.759Z,16.05
2016-10-11T06:24:37.966Z,16.07
2016-10-11T06:25:49.175Z,16.05
2016-10-11T06:27:00.368Z,16.04
2016-10-11T06:28:11.495Z,16.05
2016-10-11T06:29:22.664Z,16.11
2016-10-11T06:30:33.809Z,16.14
2016-10-11T06:31:45.004Z,16.11
2016-10-11T06:32:56.165Z,16.2
2016-10-11T06:34:07.365Z,16.28
2016-10-11T06:35:18.575Z,16.11
2016-10-11T06:36:29.776Z,16.2
2016-10-11T06:37:40.931Z,16.17
2016-10-11T06:38:52.106Z,16.14
2016-10-11T06:40:03.290Z,16.12
2016-10-11T06:41:14.447Z,16.14
2016-10-11T06:42:25.619Z,16.15
2016-10-11T06:43:36.787Z,16.14
2016-10-11T06:44:47.967Z,16.23
2016-10-11T06:45:59.121Z,16.21
2016-10-11T06:47:10.302Z,16.33
2016-10-11T06:48:21.471Z,16.33
2016-10-11T06:49:32.636Z,16.23
2016-10-11T06:50:43.779Z,16.33
2016-10-11T06:51:54.929Z,16.31
2016-10-11T06:53:06.094Z,16.33
2016-10-11T06:54:17.278Z,16.27
2016-10-11T06:55:28.443Z,16.2
2016-10-11T06:56:39.608Z,16.31
2016-10-11T06:57:50.747Z,16.23
2016-10-11T06:59:01.922Z,16.21
2016-10-11T07:00:13.110Z,16.24
2016-10-11T07:01:24.268Z,16.27
2016-10-11T07:02:35.417Z,16.23
2016-10-11T07:03:46.607Z,16.31
2016-10-11T07:04:57.784Z,16.3
2016-10-11T07:06:08.963Z,16.31
2016-10-11T07:07:20.135Z,16.25
2016-10-11T07:08:31.345Z,16.33
2016-10-11T07:09:42.543Z,16.28
2016-10-11T07:10:53.703Z,16.34
2016-10-11T07:12:04.843Z,16.3
2016-10-11T07:13:16.028Z,16.25
2016-10-11T07:14:27.201Z,16.38
2016-10-11T07:15:38.364Z,16.25
2016-10-11T07:16:49.560Z,16.33
2016-10-11T07:18:00.724Z,16.3
2016-10-11T07:19:11.891Z,16.3
2016-10-11T07:20:23.061Z,16.28
2016-10-11T07:21:34.232Z,16.28
2016-10-11T07:22:45.370Z,16.31
2016-10-11T07:23:56.551Z,16.23
2016-10-11T07:25:07.721Z,16.27
2016-10-11T07:26:18.895Z,16.33
2016-10-11T07:27:30.082Z,16.35
2016-10-11T07:28:41.273Z,16.34
2016-10-11T07:29:52.462Z,16.35
2016-10-11T07:31:03.638Z,16.48
2016-10-11T07:32:14.833Z,16.3
2016-10-11T07:33:25.988Z,16.41
2016-10-11T07:34:37.189Z,16.35
2016-10-11T07:35:48.360Z,16.38
2016-10-11T07:36:59.515Z,16.31
2016-10-11T07:38:10.716Z,16.46
2016-10-11T07:39:21.894Z,16.38
2016-10-11T07:40:33.031Z,16.31
2016-10-11T07:41:44.189Z,16.33
2016-10-11T07:42:55.332Z,16.39
2016-10-11T07:44:06.478Z,16.34
2016-10-11T07:45:17.632Z,16.35
2016-10-11T07:46:28.794Z,16.35
2016-10-11T07:47:39.968Z,16.33
2016-10-11T07:48:51.142Z,16.42
2016-10-11T07:50:02.289Z,16.28
2016-10-11T07:51:13.441Z,16.38
2016-10-11T07:52:24.601Z,16.39
2016-10-11T07:53:35.774Z,16.31
2016-10-11T07:54:46.939Z,16.3
2016-10-11T07:55:58.095Z,16.34
2016-10-11T07:57:09.264Z,16.35
2016-10-11T07:58:20.431Z,16.39
2016-10-11T07:59:31.617Z,16.31
2016-10-11T08:00:42.775Z,16.35
2016-10-11T08:01:53.948Z,16.31
2016-10-11T08:03:05.112Z,16.35
2016-10-11T08:04:16.256Z,16.28
2016-10-11T08:05:27.429Z,16.31
2016-10-11T08:06:38.596Z,16.33
2016-10-11T08:07:49.757Z,16.31
2016-10-11T08:09:00.940Z,16.28
2016-10-11T08:10:12.082Z,16.3
2016-10-11T08:11:23.239Z,16.39
2016-10-11T08:12:34.394Z,16.41
2016-10-11T08:13:45.554Z,16.3
2016-10-11T08:14:56.725Z,16.46
2016-10-11T08:16:07.888Z,16.43
2016-10-11T08:17:19.056Z,16.27
2016-10-11T08:18:30.218Z,16.43
2016-10-11T08:19:41.402Z,16.33
2016-10-11T08:20:52.565Z,16.34
2016-10-11T08:22:03.736Z,16.48
2016-10-11T08:23:14.896Z,16.33
2016-10-11T08:24:26.075Z,16.33
2016-10-11T08:25:37.298Z,16.34
2016-10-11T08:26:48.501Z,16.27
2016-10-11T08:27:59.624Z,16.34
2016-10-11T08:29:11.338Z,16.33
2016-10-11T08:30:22.527Z,16.3
2016-10-11T08:31:33.706Z,16.41
2016-10-11T08:32:44.838Z,16.42
2016-10-11T08:33:56.015Z,16.42
2016-10-11T08:35:07.785Z,16.39
2016-10-11T08:36:18.972Z,16.38
2016-10-11T08:37:30.136Z,16.35
2016-10-11T08:38:41.314Z,16.43
2016-10-11T08:39:52.502Z,16.38
2016-10-11T08:41:03.708Z,16.45
2016-10-11T08:42:15.101Z,16.46
2016-10-11T08:43:26.291Z,16.41
2016-10-11T08:44:37.462Z,16.41
2016-10-11T08:45:48.697Z,16.42
2016-10-11T08:46:59.855Z,16.38
2016-10-11T08:48:11.037Z,16.38
2016-10-11T08:49:22.193Z,16.34
2016-10-11T08:50:33.393Z,16.42
2016-10-11T08:51:44.555Z,16.42
2016-10-11T08:52:55.842Z,16.42
2016-10-11T08:54:06.999Z,16.43
2016-10-11T08:55:18.158Z,16.43
2016-10-11T08:56:29.331Z,16.41
2016-10-11T08:57:40.488Z,16.39
2016-10-11T08:58:52.215Z,16.43
2016-10-11T09:00:03.398Z,16.48
2016-10-11T09:01:14.589Z,16.39
2016-10-11T09:02:25.764Z,16.43
2016-10-11T09:03:36.956Z,16.39
2016-10-11T09:04:48.175Z,16.5
2016-10-11T09:05:59.319Z,16.48
2016-10-11T09:07:10.477Z,16.48
2016-10-11T09:08:21.671Z,16.53
2016-10-11T09:09:32.852Z,16.6
2016-10-11T09:10:44.025Z,16.56
2016-10-11T09:11:55.210Z,16.49
2016-10-11T09:13:06.386Z,16.63
2016-10-11T09:14:17.557Z,16.5
2016-10-11T09:15:28.725Z,16.52
2016-10-11T09:16:39.886Z,16.6
2016-10-11T09:17:51.061Z,16.66
2016-10-11T09:19:02.222Z,16.68
2016-10-11T09:20:13.421Z,16.6
2016-10-11T09:21:24.589Z,16.67
2016-10-11T09:22:35.736Z,16.6
2016-10-11T09:23:46.912Z,16.67
2016-10-11T09:24:58.073Z,16.71
2016-10-11T09:26:09.244Z,16.67
2016-10-11T09:27:20.427Z,16.66
2016-10-11T09:28:31.611Z,16.73
2016-10-11T09:29:42.794Z,16.76
2016-10-11T09:30:54.524Z,16.79
2016-10-11T09:32:05.700Z,16.7
2016-10-11T09:33:16.877Z,16.81
2016-10-11T09:34:28.045Z,16.7
2016-10-11T09:35:39.220Z,16.68
2016-10-11T09:36:50.399Z,16.76
2016-10-11T09:38:01.590Z,16.83
2016-10-11T09:39:12.768Z,16.73
2016-10-11T09:40:23.931Z,16.85
2016-10-11T09:41:35.099Z,16.81
2016-10-11T09:42:46.254Z,16.81
2016-10-11T09:43:57.447Z,16.82
2016-10-11T09:45:08.603Z,16.75
2016-10-11T09:46:19.799Z,16.83
2016-10-11T09:47:30.953Z,16.86
2016-10-11T09:48:42.113Z,16.78
2016-10-11T09:49:53.280Z,16.82
2016-10-11T09:51:04.466Z,16.85
2016-10-11T09:52:15.620Z,16.83
2016-10-11T09:53:26.767Z,16.83
2016-10-11T09:54:37.968Z,16.86
2016-10-11T09:55:49.140Z,16.93
2016-10-11T09:57:00.309Z,17
2016-10-11T09:58:11.500Z,16.97
2016-10-11T09:59:22.667Z,17.08
2016-10-11T10:00:33.812Z,17.07
2016-10-11T10:01:45.010Z,17.21
2016-10-11T10:02:56.220Z,17.23
2016-10-11T10:04:07.413Z,17.26
2016-10-11T10:05:18.580Z,17.31
2016-10-11T10:06:29.731Z,17.37
2016-10-11T10:07:40.918Z,17.25
2016-10-11T10:08:52.134Z,17.22
2016-10-11T10:10:03.300Z,17.36
2016-10-11T10:11:14.453Z,17.31
2016-10-11T10:12:25.625Z,17.33
2016-10-11T10:13:36.806Z,17.3
2016-10-11T10:14:47.995Z,17.37
2016-10-11T10:15:59.179Z,17.36
2016-10-11T10:17:10.370Z,17.33
2016-10-11T10:18:21.541Z,17.33
2016-10-11T10:19:32.720Z,17.33
2016-10-11T10:20:43.943Z,17.36
2016-10-11T10:21:55.109Z,17.34
2016-10-11T10:23:06.272Z,17.4
2016-10-11T10:24:17.428Z,17.48
2016-10-11T10:25:28.588Z,17.52
2016-10-11T10:26:39.947Z,17.58
2016-10-11T10:27:51.103Z,17.68
2016-10-11T10:29:02.288Z,17.64
2016-10-11T10:30:13.479Z,17.7
2016-10-11T10:31:24.652Z,17.71
2016-10-11T10:32:35.823Z,17.7
2016-10-11T10:33:46.994Z,17.54
2016-10-11T10:34:58.182Z,17.51
2016-10-11T10:36:09.394Z,17.36
2016-10-11T10:37:20.591Z,17.33
2016-10-11T10:38:31.772Z,17.38
2016-10-11T10:39:42.924Z,17.51
2016-10-11T10:40:54.123Z,17.51
2016-10-11T10:42:05.316Z,17.68
2016-10-11T10:43:16.494Z,17.72
2016-10-11T10:44:27.658Z,17.74
2016-10-11T10:45:38.829Z,17.81
2016-10-11T10:46:50.024Z,17.87
2016-10-11T10:48:01.445Z,17.78
2016-10-11T10:49:12.839Z,17.77
2016-10-11T10:50:24.024Z,17.86
2016-10-11T10:51:35.186Z,17.75
2016-10-11T10:52:46.357Z,17.75
2016-10-11T10:53:57.559Z,17.75
2016-10-11T10:55:08.747Z,17.78
2016-10-11T10:56:19.943Z,17.86
2016-10-11T10:57:31.688Z,17.87
2016-10-11T10:58:42.874Z,17.93
2016-10-11T10:59:54.043Z,17.97
2016-10-11T11:01:05.199Z,18.05
2016-10-11T11:02:16.959Z,18.14
2016-10-11T11:03:28.137Z,18.14
2016-10-11T11:04:39.347Z,18.05
2016-10-11T11:05:50.532Z,17.97
2016-10-11T11:07:01.723Z,17.81
2016-10-11T11:08:12.860Z,17.89
2016-10-11T11:09:24.005Z,17.9
2016-10-11T11:10:35.198Z,17.96
2016-10-11T11:11:46.374Z,17.96
2016-10-11T11:12:57.584Z,17.95
2016-10-11T11:14:08.792Z,17.95
2016-10-11T11:15:20.527Z,17.96
2016-10-11T11:16:31.701Z,17.93
2016-10-11T11:17:42.873Z,17.81
2016-10-11T11:18:54.028Z,17.96
2016-10-11T11:20:05.233Z,18.03
2016-10-11T11:21:16.420Z,17.96
2016-10-11T11:22:27.586Z,17.89
2016-10-11T11:23:38.757Z,17.9
2016-10-11T11:24:49.921Z,18.03
2016-10-11T11:26:01.104Z,17.96
2016-10-11T11:27:12.297Z,18
2016-10-11T11:28:23.456Z,18.05
2016-10-11T11:29:34.623Z,18.14
2016-10-11T11:30:45.789Z,18.25
2016-10-11T11:31:56.955Z,18.21
2016-10-11T11:33:08.118Z,18.32
2016-10-11T11:34:19.328Z,18.6
2016-10-11T11:35:30.492Z,18.57
2016-10-11T11:36:41.676Z,18.6
2016-10-11T11:37:52.845Z,18.6
2016-10-11T11:39:03.993Z,18.47
2016-10-11T11:40:15.210Z,18.52
2016-10-11T11:41:26.706Z,18.62
2016-10-11T11:42:38.566Z,18.63
2016-10-11T11:43:49.735Z,18.55
2016-10-11T11:45:00.931Z,18.63
2016-10-11T11:46:12.115Z,18.57
2016-10-11T11:47:23.287Z,18.85
2016-10-11T11:48:34.460Z,19.11
2016-10-11T11:49:45.630Z,19.26
2016-10-11T11:50:57.374Z,19.08
2016-10-11T11:52:08.541Z,18.92
2016-10-11T11:53:19.738Z,18.92
2016-10-11T11:54:30.897Z,19.02
2016-10-11T11:55:42.070Z,19.22
2016-10-11T11:56:53.249Z,19.39
2016-10-11T11:58:04.454Z,19.32
2016-10-11T11:59:15.656Z,19.25
2016-10-11T12:00:26.832Z,19.26
2016-10-11T12:01:38.057Z,19.4
2016-10-11T12:02:49.220Z,19.26
2016-10-11T12:04:00.366Z,19
2016-10-11T12:05:11.532Z,18.84
2016-10-11T12:06:22.713Z,18.94
2016-10-11T12:07:33.862Z,19.06
2016-10-11T12:08:45.061Z,19.04
2016-10-11T12:09:56.269Z,19.02
2016-10-11T12:11:07.427Z,19.18
2016-10-11T12:12:18.622Z,19.32
2016-10-11T12:13:29.780Z,19.47
2016-10-11T12:14:40.972Z,19.5
2016-10-11T12:15:52.161Z,19.47
2016-10-11T12:17:03.305Z,19.22
2016-10-11T12:18:14.492Z,19.16
2016-10-11T12:19:25.703Z,19.21
2016-10-11T12:20:36.903Z,19.5
2016-10-11T12:21:48.088Z,19.77
2016-10-11T12:22:59.257Z,19.94
2016-10-11T12:24:10.388Z,20.14
2016-10-11T12:25:21.578Z,20.17
2016-10-11T12:26:32.758Z,19.98
2016-10-11T12:27:43.904Z,20.05
2016-10-11T12:28:55.116Z,19.83
2016-10-11T12:30:06.316Z,19.68
2016-10-11T12:31:17.500Z,19.54
2016-10-11T12:32:28.686Z,19.4
2016-10-11T12:33:39.859Z,19.5
2016-10-11T12:34:51.051Z,19.61
2016-10-11T12:36:02.245Z,19.81
2016-10-11T12:37:13.995Z,20.28
2016-10-11T12:38:25.160Z,20.51
2016-10-11T12:39:36.312Z,20.79
2016-10-11T12:40:47.504Z,21.09
2016-10-11T12:41:58.703Z,21.16
2016-10-11T12:43:09.890Z,21.14
2016-10-11T12:44:21.052Z,21.12
2016-10-11T12:45:32.284Z,20.74
2016-10-11T12:46:43.466Z,20.58
2016-10-11T12:47:54.645Z,20.42
2016-10-11T12:49:05.808Z,20.47
2016-10-11T12:50:17.112Z,20.48
2016-10-11T12:51:28.305Z,20.58
2016-10-11T12:52:39.519Z,20.74
2016-10-11T12:53:50.720Z,20.64
2016-10-11T12:55:01.898Z,20.61
2016-10-11T12:56:13.049Z,20.59
2016-10-11T12:57:24.230Z,20.84
2016-10-11T12:58:35.427Z,21.07
2016-10-11T12:59:46.594Z,21.24
2016-10-11T13:00:57.800Z,21.28
2016-10-11T13:02:08.993Z,20.98
2016-10-11T13:03:20.174Z,20.76
2016-10-11T13:04:31.350Z,20.52
2016-10-11T13:05:42.505Z,20.38
2016-10-11T13:06:54.468Z,20.31
2016-10-11T13:08:05.889Z,20.29
2016-10-11T13:09:17.060Z,20.41
2016-10-11T13:10:28.271Z,20.43
2016-10-11T13:11:39.476Z,20.57
2016-10-11T13:12:50.649Z,20.52
2016-10-11T13:14:02.396Z,20.42
2016-10-11T13:15:13.635Z,20.74
2016-10-11T13:16:24.880Z,21.03
2016-10-11T13:17:36.078Z,21.16
2016-10-11T13:18:47.243Z,21.22
2016-10-11T13:19:58.446Z,21.03
2016-10-11T13:21:09.597Z,21.01
2016-10-11T13:22:20.767Z,21.09
2016-10-11T13:23:31.947Z,20.98
2016-10-11T13:24:43.128Z,20.98
2016-10-11T13:25:54.305Z,20.76
2016-10-11T13:27:05.465Z,20.52
2016-10-11T13:28:16.645Z,20.43
2016-10-11T13:29:27.854Z,20.58
2016-10-11T13:30:39.030Z,20.64
2016-10-11T13:31:50.748Z,20.91
2016-10-11T13:33:01.945Z,21.17
2016-10-11T13:34:13.173Z,20.98
2016-10-11T13:35:24.364Z,20.91
2016-10-11T13:36:35.543Z,20.76
2016-10-11T13:37:46.736Z,20.61
2016-10-11T13:38:57.931Z,20.64
2016-10-11T13:40:09.124Z,20.62
2016-10-11T13:41:20.297Z,20.76
2016-10-11T13:42:31.503Z,20.87
2016-10-11T13:43:42.704Z,20.99
2016-10-11T13:44:53.886Z,21.21
2016-10-11T13:46:05.067Z,21.27
2016-10-11T13:47:16.267Z,21.49
2016-10-11T13:48:27.473Z,21.61
2016-10-11T13:49:38.644Z,22
2016-10-11T13:50:50.384Z,22.14
2016-10-11T13:52:01.542Z,21.8
2016-10-11T13:53:12.717Z,21.71
2016-10-11T13:54:23.908Z,21.84
2016-10-11T13:55:35.081Z,21.99
2016-10-11T13:56:46.462Z,22.1
2016-10-11T13:57:57.692Z,22.24
2016-10-11T13:59:08.878Z,22.1
2016-10-11T14:00:20.069Z,22.07
2016-10-11T14:01:31.269Z,22.21
2016-10-11T14:02:42.489Z,22.49
2016-10-11T14:03:54.131Z,22.72
2016-10-11T14:05:05.282Z,23.1
2016-10-11T14:06:16.456Z,23.05
2016-10-11T14:07:27.625Z,23.22
2016-10-11T14:08:39.342Z,23.27
2016-10-11T14:09:50.536Z,23.35
2016-10-11T14:11:01.712Z,23.33
2016-10-11T14:12:13.451Z,23.54
2016-10-11T14:13:24.760Z,23.38
2016-10-11T14:14:35.957Z,23.43
2016-10-11T14:15:47.139Z,23.55
2016-10-11T14:16:58.467Z,23.28
2016-10-11T14:18:09.670Z,23.09
2016-10-11T14:19:20.862Z,23.07
2016-10-11T14:20:32.403Z,23.23
2016-10-11T14:21:43.593Z,23.22
2016-10-11T14:22:54.790Z,23.2
2016-10-11T14:24:05.987Z,23.51
2016-10-11T14:25:17.189Z,23.25
2016-10-11T14:26:28.389Z,23.42
2016-10-11T14:27:39.605Z,23.68
2016-10-11T14:28:50.882Z,23.55
2016-10-11T14:30:02.233Z,23.73
2016-10-11T14:31:13.468Z,23.91
2016-10-11T14:32:24.637Z,24.46
2016-10-11T14:33:35.807Z,25.23
2016-10-11T14:34:46.984Z,25.92
2016-10-11T14:35:58.194Z,26.72
2016-10-11T14:37:09.366Z,27.12
2016-10-11T14:38:20.571Z,27.29
2016-10-11T14:39:31.736Z,27.24
2016-10-11T14:40:42.907Z,26.88
2016-10-11T14:41:54.096Z,26.5
2016-10-11T14:43:05.340Z,26.2
2016-10-11T14:44:16.599Z,25.98
2016-10-11T14:45:27.808Z,26.01
2016-10-11T14:46:38.972Z,25.85
2016-10-11T14:47:50.241Z,25.4
2016-10-11T14:49:01.424Z,24.98
2016-10-11T14:50:12.601Z,24.62
2016-10-11T14:51:23.814Z,23.98
2016-10-11T14:52:35.011Z,23.51
2016-10-11T14:53:46.176Z,23.23
2016-10-11T14:54:57.331Z,23.02
2016-10-11T14:56:08.540Z,23.16
2016-10-11T14:57:19.985Z,23.58
2016-10-11T14:58:31.201Z,24.27
2016-10-11T14:59:42.392Z,24.87
2016-10-11T15:00:53.547Z,25.15
2016-10-11T15:02:04.749Z,25.25
2016-10-11T15:03:15.926Z,25.72
2016-10-11T15:04:27.103Z,25.87
2016-10-11T15:05:38.274Z,25.39
2016-10-11T15:06:49.456Z,24.61
2016-10-11T15:08:00.627Z,24.12
2016-10-11T15:09:11.795Z,23.83
2016-10-11T15:10:23.004Z,23.73
2016-10-11T15:11:34.199Z,23.55
2016-10-11T15:12:45.390Z,23.53
2016-10-11T15:13:56.589Z,23.57
2016-10-11T15:15:07.801Z,23.85
2016-10-11T15:16:18.977Z,24.46
2016-10-11T15:17:30.195Z,24.61
2016-10-11T15:18:41.376Z,24.8
2016-10-11T15:19:52.577Z,24.62
2016-10-11T15:21:03.741Z,24.58